BMI - Central Il Rgnl/Bloomington Normal

Pirep is a free, collaborative database of all public and private airports located within the United States. All pilots are welcome to contribute, edit, and improve any airport they have local knowledge about, no registration required.
Uploaded photos will be licensed under a CC BY-SA 4.0 license. Please only upload photos you have the rights to use.
Tags
Public
METAR / TAF
Flying Clubs
Edit Tags
Food
Camping
Lodging
Car Rental
Bicycles
Swimming
Golfing
Fishing
Hot Springs
Museum
Airpark
Upcoming Events
No upcoming events. Is anything happening here soon?
*
*
*

Where exactly on/near the airport is this event taking place?

Is there a webpage with more information for this event?

Who should be contacted for more information?

What is this event all about?

Repeat every
Description
Transient Parking
Fuel Location
Last updated: 2024-01-29 21:51:55 CST
Landing & Tie-down Fees
Crew Car Availability
Flying Clubs
Last updated: 2024-01-29 21:51:55 CST
WiFi Access
Airport Statistics
Location: Bloomington/Normal, IL
Elevation: 871ft
Sectional: Chicago
Activation date: Apr 1940
Fuel: 100LL, A (prices)
Runway 02/20: 8,000ft
Runway 11/29: 6,525ft
Access: Open to the public
Current Weather — VFR
  • Weather data is strictly informational and not for flight planning purposes.
  • METAR
    2024-04-24 05:56:00 CDT
    Ceiling Wind Temperature Dewpoint Weather Visbility
    Sky clear 40° @ 13kt 37°F 37°F N/A 10SM
    Raw: KBMI 241056Z 04013KT 10SM CLR 03/03 A3012 RMK AO2 SLP200 T00330028
  • TAF
    2024-04-24 07:00:00 CDT – 2024-04-24 16:00:00 CDT
    Ceiling Wind Weather Visbility
    1,500ft 20° @ 12kt N/A 6SM
    Clouds: Scattered @ 800ft, Overcast @ 1,500ft
    Raw: KBMI 241120Z 2412/2512 02012KT P6SM SCT008 OVC015 FM242100 03010KT P6SM SCT030 FM250100 08007KT P6SM FEW250
  • TAF
    2024-04-24 16:00:00 CDT – 2024-04-24 20:00:00 CDT
    Ceiling Wind Weather Visbility
    Sky clear 30° @ 10kt N/A 6SM
    Clouds: Scattered @ 3,000ft
    Raw: KBMI 241120Z 2412/2512 02012KT P6SM SCT008 OVC015 FM242100 03010KT P6SM SCT030 FM250100 08007KT P6SM FEW250
  • TAF
    2024-04-24 20:00:00 CDT – 2024-04-25 07:00:00 CDT
    Ceiling Wind Weather Visbility
    Sky clear 80° @ 7kt N/A 6SM
    Clouds: Few @ 25,000ft
    Raw: KBMI 241120Z 2412/2512 02012KT P6SM SCT008 OVC015 FM242100 03010KT P6SM SCT030 FM250100 08007KT P6SM FEW250
Click/tap to add an annotation marker to the map
Airport Webcams
No webcams added yet.
Direct links to live image URLs will be displayed inline on this page. URLs to separate webpages will be linked to.
URL:
Direct links to live image URLs will be displayed inline on this page. URLs to separate webpages will be linked to.
URL:
Remarks
  • 48 hr ppr for unsked acr opns with more than 30 psgr seats; call amgr 309-663-7383.
  • Birds on and invof arpt.
  • Snow removal ops in progress winter months; equipment operators will be monitoring ctaf when twr clsd.
  • Acft ldg/departing bloomington should announce intentions on ctaf when atct clsd.
  • Arpt opns avbl 24 hrs at 309-834-7396.
Comments
Leave a comment What was your experience like at this airport?